Terminal Aerodrome Forecast
Issued by NWS Denver/Boulder, CO

Home | Current Version | Previous Version | Text Only | Print | Product List | Glossary On
Versions: 1 2 3 4 5 6 7 8 9 10 11 12 13 14 15 16 17 18 19 20 21 22 23 24 25 26 27 28 29 30 31 32 33 34 35 36 37
000
FTUS45 KBOU 210005 AAA
TAFDEN
TAF AMD
KDEN 210005Z 2100/2206 18014KT P6SM FEW100
     FM210100 VRB06KT P6SM FEW120
     FM210200 20011KT P6SM SKC
     FM211400 24009KT P6SM SKC
     FM211800 19014KT P6SM FEW220
     FM212000 17014G22KT P6SM FEW120=

USA.gov is the U.S. government's official web portal to all federal, state and local government web resources and services.